createdAt,value
2019-05-07T00:00:33.018Z,3.87
2019-05-07T00:03:03.284Z,5.73
2019-05-07T00:05:33.174Z,3.00
2019-05-07T00:08:03.037Z,4.47
2019-05-07T00:10:33.190Z,5.67
2019-05-07T00:13:02.586Z,5.17
2019-05-07T00:15:32.773Z,3.27
2019-05-07T00:18:03.155Z,3.33
2019-05-07T00:20:32.828Z,3.83
2019-05-07T00:23:02.918Z,7.97
2019-05-07T00:25:32.791Z,3.80
2019-05-07T00:28:02.888Z,3.87
2019-05-07T00:30:33.140Z,8.33
2019-05-07T00:33:02.866Z,10.50
2019-05-07T00:35:33.581Z,15.63
2019-05-07T00:38:06.876Z,6.33
2019-05-07T00:40:37.441Z,8.97
2019-05-07T00:43:08.264Z,7.70
2019-05-07T00:45:44.570Z,6.03
2019-05-07T00:48:13.786Z,8.83
2019-05-07T00:50:44.355Z,17.97
2019-05-07T00:53:13.547Z,5.97
2019-05-07T00:55:42.734Z,5.87
2019-05-07T00:58:13.237Z,5.67
2019-05-07T01:00:42.618Z,7.67
2019-05-07T01:03:12.825Z,7.87
2019-05-07T01:05:43.237Z,9.47
2019-05-07T01:08:13.287Z,6.13
2019-05-07T01:10:42.270Z,8.07
2019-05-07T01:13:12.539Z,4.63
2019-05-07T01:15:43.046Z,5.67
2019-05-07T01:18:13.118Z,5.30
2019-05-07T01:20:42.470Z,5.63
2019-05-07T01:23:13.385Z,7.70
2019-05-07T01:25:43.072Z,4.77
2019-05-07T01:28:13.186Z,7.23
2019-05-07T01:30:43.559Z,6.23
2019-05-07T01:33:30.490Z,6.13
2019-05-07T01:36:07.221Z,7.47
2019-05-07T01:38:36.179Z,6.97
2019-05-07T01:41:05.103Z,8.10
2019-05-07T01:43:34.051Z,6.67
2019-05-07T01:46:03.281Z,8.13
2019-05-07T01:48:32.562Z,5.43
2019-05-07T01:51:03.439Z,7.07
2019-05-07T01:53:33.824Z,5.47
2019-05-07T01:56:03.425Z,4.40
2019-05-07T01:58:33.295Z,8.93
2019-05-07T02:01:02.941Z,5.30
2019-05-07T02:03:50.254Z,6.80
2019-05-07T02:06:32.837Z,8.07
2019-05-07T02:09:10.907Z,7.17
2019-05-07T02:11:43.858Z,10.90
2019-05-07T02:14:13.671Z,11.00
2019-05-07T02:16:42.719Z,12.10
2019-05-07T02:19:12.631Z,11.57
2019-05-07T02:21:42.328Z,7.90
2019-05-07T02:24:12.642Z,8.40
2019-05-07T02:26:42.696Z,7.23
2019-05-07T02:29:13.089Z,9.63
2019-05-07T02:31:44.079Z,6.03
2019-05-07T02:34:14.034Z,3.60
2019-05-07T02:36:43.633Z,5.27
2019-05-07T02:39:23.751Z,7.73
2019-05-07T02:41:53.921Z,9.87
2019-05-07T02:44:23.203Z,6.67
2019-05-07T02:46:56.344Z,8.53
2019-05-07T02:49:32.626Z,4.37
2019-05-07T02:52:18.427Z,9.03
2019-05-07T02:54:58.156Z,6.93
2019-05-07T02:57:29.239Z,12.80
2019-05-07T02:59:58.504Z,3.53
2019-05-07T03:02:27.784Z,4.50
2019-05-07T03:04:56.727Z,6.03
2019-05-07T03:07:25.951Z,10.90
2019-05-07T03:09:54.937Z,10.30
2019-05-07T03:12:24.199Z,5.13
2019-05-07T03:14:53.965Z,5.83
2019-05-07T03:17:24.815Z,5.63
2019-05-07T03:19:55.039Z,7.93
2019-05-07T03:22:24.259Z,12.53
2019-05-07T03:24:55.112Z,5.07
2019-05-07T03:27:24.053Z,7.53
2019-05-07T03:29:54.875Z,7.13
2019-05-07T03:32:39.822Z,10.87
2019-05-07T03:35:27.802Z,12.27
2019-05-07T03:37:57.421Z,3.80
2019-05-07T03:40:26.672Z,17.83
2019-05-07T03:42:55.888Z,12.87
2019-05-07T03:45:26.475Z,7.57
2019-05-07T03:48:03.716Z,11.27
2019-05-07T03:50:33.815Z,13.10
2019-05-07T03:53:03.257Z,12.10
2019-05-07T03:55:33.183Z,15.33
2019-05-07T03:58:03.102Z,13.37
2019-05-07T04:00:33.402Z,24.53
2019-05-07T04:03:03.651Z,16.33
2019-05-07T04:05:34.289Z,21.73
2019-05-07T04:08:03.791Z,21.07
2019-05-07T04:10:34.148Z,18.50
2019-05-07T04:13:04.469Z,19.97
2019-05-07T04:15:34.054Z,16.23
2019-05-07T04:18:03.837Z,16.63
2019-05-07T04:20:33.522Z,16.05
2019-05-07T04:23:04.293Z,13.57
2019-05-07T04:25:43.437Z,14.87
2019-05-07T04:28:16.367Z,12.45
2019-05-07T04:30:45.398Z,20.43
2019-05-07T04:33:18.794Z,13.62
2019-05-07T04:35:49.451Z,10.75
2019-05-07T04:38:18.460Z,12.23
2019-05-07T04:40:47.417Z,11.48
2019-05-07T04:43:16.359Z,19.32
2019-05-07T04:45:45.618Z,21.07
2019-05-07T04:48:14.644Z,22.90
2019-05-07T04:50:47.658Z,22.30
2019-05-07T04:53:16.577Z,20.90
2019-05-07T04:55:45.875Z,13.68
2019-05-07T04:58:15.094Z,20.60
2019-05-07T05:00:44.792Z,14.38
2019-05-07T05:03:18.396Z,14.87
2019-05-07T05:05:47.684Z,19.82
2019-05-07T05:08:16.622Z,12.37
2019-05-07T05:10:45.561Z,10.43
2019-05-07T05:13:14.878Z,11.50
2019-05-07T05:15:43.820Z,15.30
2019-05-07T05:18:12.970Z,12.30
2019-05-07T05:20:51.807Z,12.47
2019-05-07T15:24:46.781Z,13.03
2019-05-07T15:27:19.344Z,4.97
2019-05-07T15:29:48.597Z,8.15
2019-05-07T15:32:18.206Z,9.80
2019-05-07T15:34:47.620Z,9.63
2019-05-07T15:37:18.388Z,5.72
2019-05-07T15:39:47.487Z,6.47
2019-05-07T15:42:16.435Z,4.95
2019-05-07T15:44:45.397Z,5.10
2019-05-07T15:47:15.967Z,2.90
2019-05-07T15:49:45.887Z,4.17
2019-05-07T15:52:16.468Z,3.98
2019-05-07T15:54:45.689Z,5.75
2019-05-07T15:57:22.410Z,5.83
2019-05-07T15:59:53.107Z,4.60
2019-05-07T16:02:32.034Z,2.92
2019-05-07T16:05:02.197Z,2.65
2019-05-07T16:07:32.784Z,8.35
2019-05-07T16:10:03.287Z,6.75
2019-05-07T16:12:32.315Z,2.05
2019-05-07T16:15:03.152Z,2.20
2019-05-07T16:17:52.081Z,1.40
2019-05-07T16:20:22.716Z,4.00
2019-05-07T16:22:55.122Z,1.30
2019-05-07T16:25:23.766Z,1.90
2019-05-07T16:27:52.820Z,3.37
2019-05-07T16:30:22.860Z,2.75
2019-05-07T16:32:55.218Z,3.47
2019-05-07T16:35:22.850Z,4.87
2019-05-07T16:37:52.180Z,2.58
2019-05-07T16:40:22.942Z,1.12
2019-05-07T16:42:52.538Z,4.95
2019-05-07T16:45:21.599Z,2.72
2019-05-07T16:47:52.142Z,3.20
2019-05-07T16:50:22.381Z,1.95
2019-05-07T16:52:52.450Z,1.65
2019-05-07T16:55:23.371Z,2.42
